createdAt,value
2022-11-21T00:01:23.758Z,21.15
2022-11-21T00:02:46.131Z,14.82
2022-11-21T00:04:09.518Z,22.08
2022-11-21T00:05:34.046Z,16.48
2022-11-21T00:06:56.409Z,17.58
2022-11-21T00:08:21.728Z,20.48
2022-11-21T00:09:45.069Z,21.52
2022-11-21T00:11:08.569Z,17.00
2022-11-21T00:12:30.973Z,15.10
2022-11-21T00:13:55.671Z,16.92
2022-11-21T00:15:19.222Z,20.98
2022-11-21T00:16:42.610Z,14.50
2022-11-21T00:18:05.554Z,17.02
2022-11-21T00:19:28.992Z,15.48
2022-11-21T00:20:52.379Z,16.70
2022-11-21T00:22:14.758Z,16.52
2022-11-21T00:23:38.397Z,18.05
2022-11-21T00:25:00.807Z,16.52
2022-11-21T00:26:24.181Z,15.85
2022-11-21T00:27:46.553Z,18.27
2022-11-21T00:29:11.503Z,18.27
2022-11-21T00:30:34.024Z,18.35
2022-11-21T00:31:57.445Z,14.30
2022-11-21T00:33:19.881Z,19.80
2022-11-21T00:34:43.216Z,18.30
2022-11-21T00:36:10.523Z,15.27
2022-11-21T00:37:33.757Z,16.88
2022-11-21T00:38:57.103Z,17.10
2022-11-21T00:40:20.487Z,16.60
2022-11-21T00:41:42.828Z,14.02
2022-11-21T00:43:06.161Z,16.42
2022-11-21T00:44:30.871Z,18.67
2022-11-21T00:45:54.351Z,18.55
2022-11-21T00:47:16.725Z,17.98
2022-11-21T00:48:40.068Z,18.85
2022-11-21T00:50:03.457Z,18.42
2022-11-21T00:51:25.867Z,18.20
2022-11-21T00:52:49.213Z,16.30
2022-11-21T00:54:11.657Z,17.52
2022-11-21T00:55:37.180Z,21.00
2022-11-21T00:56:59.526Z,17.70
2022-11-21T00:58:23.002Z,19.73
2022-11-21T00:59:47.758Z,18.92
2022-11-21T01:01:13.319Z,15.57
2022-11-21T01:02:35.686Z,18.48
2022-11-21T01:03:59.573Z,17.65
2022-11-21T01:05:22.933Z,20.58
2022-11-21T01:06:46.363Z,19.38
2022-11-21T01:08:09.721Z,15.77
2022-11-21T01:09:32.314Z,16.88
2022-11-21T01:10:55.669Z,20.88
2022-11-21T01:12:19.020Z,17.45
2022-11-21T01:13:41.928Z,17.73
2022-11-21T01:15:07.916Z,18.35
2022-11-21T01:16:30.524Z,19.58
2022-11-21T01:17:53.910Z,15.57
2022-11-21T01:19:16.324Z,18.23
2022-11-21T01:20:41.039Z,16.98
2022-11-21T01:22:03.463Z,18.77
2022-11-21T01:23:26.812Z,17.73
2022-11-21T01:24:50.170Z,16.27
2022-11-21T01:26:13.934Z,16.23
2022-11-21T01:27:37.329Z,16.15
2022-11-21T01:29:00.861Z,17.70
2022-11-21T01:30:24.590Z,15.93
2022-11-21T01:31:47.984Z,18.20
2022-11-21T01:33:10.393Z,14.18
2022-11-21T01:34:33.777Z,17.10
2022-11-21T01:35:57.112Z,17.50
2022-11-21T01:37:20.534Z,14.85
2022-11-21T01:38:46.150Z,16.60
2022-11-21T01:40:10.716Z,14.23
2022-11-21T01:41:35.920Z,14.75
2022-11-21T01:43:03.090Z,21.40
2022-11-21T01:44:28.616Z,20.45
2022-11-21T01:45:57.497Z,17.52
2022-11-21T01:47:22.526Z,16.60
2022-11-21T01:48:48.568Z,19.48
2022-11-21T01:50:13.096Z,18.40
2022-11-21T01:51:40.011Z,16.55
2022-11-21T01:53:02.427Z,16.02
2022-11-21T01:54:27.985Z,19.33
2022-11-21T01:55:51.734Z,21.77
2022-11-21T01:57:17.258Z,19.13
2022-11-21T01:58:40.850Z,14.93
2022-11-21T02:00:07.198Z,17.48
2022-11-21T02:01:31.645Z,17.67
2022-11-21T02:02:56.853Z,17.35
2022-11-21T02:04:20.234Z,16.40
2022-11-21T02:05:42.780Z,16.92
2022-11-21T02:07:08.409Z,20.80
2022-11-21T02:08:30.921Z,18.05
2022-11-21T02:09:55.887Z,14.90
2022-11-21T02:11:24.802Z,18.15
2022-11-21T02:12:50.521Z,16.60
2022-11-21T02:14:12.900Z,17.73
2022-11-21T02:15:36.222Z,19.40
2022-11-21T02:17:02.013Z,20.55
2022-11-21T02:18:25.406Z,18.48
2022-11-21T02:19:52.811Z,17.02
2022-11-21T02:21:23.832Z,20.05
2022-11-21T02:22:50.042Z,20.17
2022-11-21T02:24:17.885Z,17.38
2022-11-21T02:25:42.563Z,21.77
2022-11-21T02:27:05.969Z,21.38
2022-11-21T02:28:29.495Z,20.15
2022-11-21T02:29:52.899Z,18.27
2022-11-21T02:31:15.270Z,19.27
2022-11-21T02:32:40.264Z,18.77
2022-11-21T02:34:02.630Z,20.88
2022-11-21T02:35:26.360Z,20.08
2022-11-21T02:36:48.990Z,17.67
2022-11-21T02:38:17.843Z,18.23
2022-11-21T02:39:40.230Z,17.10
2022-11-21T02:41:13.601Z,17.17
2022-11-21T02:42:37.960Z,16.75
2022-11-21T02:44:05.533Z,17.52
2022-11-21T02:45:31.780Z,15.90
2022-11-21T02:46:55.134Z,16.33
2022-11-21T02:48:18.516Z,17.33
2022-11-21T02:49:45.035Z,21.02
2022-11-21T02:51:08.496Z,19.05
2022-11-21T02:52:30.882Z,15.80
2022-11-21T02:53:54.229Z,15.23
2022-11-21T02:55:16.710Z,18.70
2022-11-21T02:56:41.413Z,20.88
2022-11-21T02:58:05.651Z,15.95
2022-11-21T02:59:29.144Z,17.13
2022-11-21T03:00:52.539Z,20.88
2022-11-21T03:02:14.959Z,19.58
2022-11-21T03:03:38.360Z,19.80
2022-11-21T03:05:00.867Z,20.17
2022-11-21T03:06:24.228Z,18.92
2022-11-21T03:07:47.252Z,16.30
2022-11-21T03:09:12.702Z,19.30
2022-11-21T03:10:35.131Z,20.83
2022-11-21T03:11:59.838Z,17.02
2022-11-21T03:13:23.208Z,17.55
2022-11-21T03:14:46.786Z,18.10
2022-11-21T03:16:09.164Z,19.45
2022-11-21T03:17:32.519Z,23.30
2022-11-21T03:18:54.921Z,20.30
2022-11-21T03:20:18.366Z,19.15
2022-11-21T03:21:41.714Z,21.90
2022-11-21T03:23:05.260Z,19.75
2022-11-21T03:24:28.048Z,26.67
2022-11-21T03:25:51.591Z,19.77
2022-11-21T03:27:16.337Z,20.17
2022-11-21T03:28:38.764Z,20.90
2022-11-21T03:30:02.117Z,19.20
2022-11-21T03:31:25.608Z,20.55
2022-11-21T03:32:49.019Z,19.60
2022-11-21T03:34:12.655Z,19.42
2022-11-21T03:35:35.011Z,16.63
2022-11-21T03:36:58.373Z,20.17
2022-11-21T03:38:20.735Z,20.90
2022-11-21T03:39:44.076Z,21.83
2022-11-21T03:41:28.402Z,24.17
2022-11-21T03:42:53.177Z,21.63
2022-11-21T03:44:15.563Z,21.92
2022-11-21T03:45:39.012Z,19.30
2022-11-21T03:47:01.355Z,19.50
2022-11-21T03:48:24.724Z,17.27
2022-11-21T03:49:48.049Z,17.63
2022-11-21T03:51:11.450Z,19.35
2022-11-21T03:52:34.840Z,17.35
2022-11-21T03:54:01.042Z,16.95
2022-11-21T03:55:24.400Z,20.73
2022-11-21T03:56:46.745Z,18.58
2022-11-21T03:58:11.454Z,17.40
2022-11-21T03:59:33.839Z,19.60
2022-11-21T04:00:57.325Z,21.25
2022-11-21T04:02:19.745Z,16.45
2022-11-21T04:03:43.643Z,18.10
2022-11-21T04:05:06.538Z,21.88
2022-11-21T04:06:31.191Z,20.15
2022-11-21T04:07:54.518Z,19.00
2022-11-21T04:09:16.886Z,16.50
2022-11-21T04:10:40.226Z,17.90
2022-11-21T04:12:07.425Z,20.95
2022-11-21T04:13:31.751Z,18.25
2022-11-21T04:14:55.080Z,22.63
2022-11-21T04:16:17.439Z,17.20
2022-11-21T04:17:40.820Z,22.23
2022-11-21T04:19:04.331Z,17.58
2022-11-21T04:20:26.701Z,19.45
2022-11-21T04:21:52.448Z,21.85
2022-11-21T04:23:16.088Z,19.48
2022-11-21T04:24:38.452Z,20.40
2022-11-21T04:26:02.039Z,16.98
2022-11-21T04:27:26.246Z,17.23
2022-11-21T04:28:50.953Z,25.65
2022-11-21T04:30:13.860Z,21.30
2022-11-21T04:31:37.206Z,20.92
2022-11-21T04:32:59.608Z,16.95
2022-11-21T04:34:22.934Z,18.95
2022-11-21T04:35:46.270Z,19.92
2022-11-21T04:37:11.720Z,17.42
2022-11-21T04:38:34.429Z,27.25
2022-11-21T04:39:57.779Z,20.38
2022-11-21T04:41:21.123Z,19.42
2022-11-21T04:42:43.819Z,22.13
2022-11-21T04:44:08.853Z,22.30
2022-11-21T04:45:31.323Z,17.63
2022-11-21T04:46:54.667Z,18.45
2022-11-21T04:48:17.085Z,18.17
2022-11-21T04:49:40.451Z,21.23
2022-11-21T04:51:04.042Z,19.98
2022-11-21T04:52:27.532Z,20.23
2022-11-21T04:53:50.897Z,24.02
2022-11-21T04:55:13.256Z,22.33
2022-11-21T04:56:36.627Z,22.27
2022-11-21T04:57:59.586Z,19.20
2022-11-21T04:59:24.376Z,27.42
2022-11-21T05:00:47.728Z,23.67
2022-11-21T05:02:11.214Z,25.90
2022-11-21T05:03:34.596Z,22.65
2022-11-21T05:04:56.931Z,21.52
2022-11-21T05:06:20.369Z,21.80
2022-11-21T05:07:42.868Z,21.00
2022-11-21T05:09:06.261Z,24.77
2022-11-21T05:10:28.705Z,25.60
2022-11-21T05:12:09.820Z,22.02
2022-11-21T05:13:33.167Z,24.17
2022-11-21T05:14:57.032Z,22.58
2022-11-21T05:16:20.371Z,18.50
2022-11-21T05:17:42.760Z,25.38
2022-11-21T05:19:07.516Z,22.58
2022-11-21T05:20:35.671Z,24.48
2022-11-21T05:22:00.134Z,24.35
2022-11-21T05:23:23.591Z,19.98
2022-11-21T05:24:45.950Z,23.00
2022-11-21T05:26:09.375Z,20.25
2022-11-21T05:27:31.805Z,24.55
2022-11-21T05:28:55.259Z,21.92
2022-11-21T05:30:19.068Z,18.08
2022-11-21T05:31:42.424Z,22.38
2022-11-21T05:33:05.894Z,18.70
2022-11-21T05:34:29.354Z,18.77
2022-11-21T05:35:53.029Z,21.25
2022-11-21T05:37:16.427Z,26.33
2022-11-21T05:38:39.755Z,24.38
2022-11-21T05:40:02.101Z,22.38
2022-11-21T05:41:25.470Z,18.40
2022-11-21T05:43:05.740Z,18.27
2022-11-21T05:44:29.353Z,22.15
2022-11-21T05:45:53.380Z,18.83
2022-11-21T05:47:16.761Z,27.20
2022-11-21T05:48:40.159Z,22.70
2022-11-21T05:50:03.538Z,29.92
2022-11-21T05:51:26.903Z,22.88
2022-11-21T05:52:49.279Z,24.45
2022-11-21T05:54:14.936Z,23.10
2022-11-21T05:55:37.293Z,21.55
2022-11-21T05:57:00.656Z,22.55
2022-11-21T05:58:23.030Z,24.35
2022-11-21T05:59:46.409Z,26.60
2022-11-21T06:01:12.745Z,22.38
2022-11-21T06:02:53.826Z,19.90
2022-11-21T06:04:16.287Z,23.83
2022-11-21T06:05:40.034Z,21.67
2022-11-21T06:07:05.853Z,22.00
2022-11-21T06:08:29.532Z,20.92
2022-11-21T06:09:52.877Z,21.88
2022-11-21T06:11:17.196Z,20.67
2022-11-21T06:12:39.551Z,28.55
2022-11-21T06:14:02.991Z,22.25
2022-11-21T06:15:26.399Z,30.75
2022-11-21T06:16:52.143Z,23.58
2022-11-21T06:18:14.502Z,20.42
2022-11-21T06:19:37.846Z,19.02
2022-11-21T06:21:05.086Z,22.98
2022-11-21T06:22:28.476Z,20.08
2022-11-21T06:23:53.137Z,21.60
2022-11-21T06:25:16.781Z,24.17
2022-11-21T06:26:40.130Z,20.75
2022-11-21T06:28:02.506Z,23.05
2022-11-21T06:29:25.911Z,20.33
2022-11-21T06:30:51.791Z,22.67
2022-11-21T06:32:16.573Z,22.98
2022-11-21T06:33:40.596Z,26.05
2022-11-21T06:35:03.047Z,23.75
2022-11-21T06:36:27.086Z,22.00
2022-11-21T06:37:53.388Z,21.73
2022-11-21T06:39:17.231Z,24.75
2022-11-21T06:40:43.245Z,24.85
2022-11-21T06:42:06.939Z,18.00
2022-11-21T06:43:30.278Z,22.40
2022-11-21T06:44:53.776Z,17.98
2022-11-21T06:46:17.638Z,21.20
2022-11-21T06:47:42.455Z,25.70
2022-11-21T06:49:05.942Z,19.25
2022-11-21T06:50:31.035Z,20.55
2022-11-21T06:51:54.398Z,23.77
2022-11-21T06:53:17.911Z,24.52
2022-11-21T06:54:41.293Z,17.23
2022-11-21T06:56:05.262Z,23.15
2022-11-21T06:57:28.648Z,21.05
2022-11-21T06:58:52.212Z,20.98
2022-11-21T07:00:16.823Z,19.42
2022-11-21T07:01:40.236Z,23.27
2022-11-21T07:03:05.684Z,22.35
2022-11-21T07:04:29.351Z,18.40
2022-11-21T07:05:53.641Z,19.92
2022-11-21T07:07:17.031Z,21.95
2022-11-21T07:08:41.268Z,22.67
2022-11-21T07:10:04.791Z,30.83
2022-11-21T07:11:28.409Z,20.48
2022-11-21T07:13:09.069Z,28.40
2022-11-21T07:14:32.475Z,19.98
2022-11-21T07:15:56.989Z,23.83
2022-11-21T07:17:20.346Z,23.52
2022-11-21T07:18:45.559Z,22.50
2022-11-21T07:20:10.069Z,23.38
2022-11-21T07:21:33.561Z,23.15
2022-11-21T07:22:57.174Z,24.73
2022-11-21T07:24:20.542Z,20.42
2022-11-21T07:25:44.212Z,26.27
2022-11-21T07:27:07.576Z,25.30
2022-11-21T07:28:31.309Z,20.60
2022-11-21T07:29:57.330Z,23.65
2022-11-21T07:31:20.709Z,20.40
2022-11-21T07:32:44.061Z,27.83
2022-11-21T07:34:08.829Z,24.77
2022-11-21T07:35:32.418Z,22.95
2022-11-21T07:36:55.789Z,28.63
2022-11-21T07:38:19.171Z,21.63
2022-11-21T07:39:42.533Z,25.40
2022-11-21T07:41:05.877Z,23.58
2022-11-21T07:42:29.220Z,21.83
2022-11-21T07:43:52.688Z,23.70
2022-11-21T07:45:15.730Z,20.98
2022-11-21T07:46:39.083Z,25.42
2022-11-21T07:48:04.035Z,22.13
2022-11-21T07:49:29.091Z,24.25
2022-11-21T07:50:52.614Z,25.10
2022-11-21T07:52:15.962Z,27.20
2022-11-21T07:53:39.464Z,24.35
2022-11-21T07:55:03.737Z,27.23
2022-11-21T07:56:27.108Z,24.38
2022-11-21T07:57:53.845Z,22.50
2022-11-21T07:59:19.191Z,24.77
2022-11-21T08:00:43.704Z,25.20
2022-11-21T08:02:07.123Z,25.73
2022-11-21T08:03:30.494Z,23.38
2022-11-21T08:04:55.582Z,19.48
2022-11-21T08:06:18.941Z,25.25
2022-11-21T08:07:42.389Z,24.10
2022-11-21T08:09:05.823Z,21.88
2022-11-21T08:10:29.259Z,21.88
2022-11-21T08:11:52.813Z,22.02
2022-11-21T08:13:16.711Z,23.88
2022-11-21T08:14:40.208Z,21.35
2022-11-21T08:16:04.751Z,23.30
2022-11-21T08:17:28.364Z,26.63
2022-11-21T08:18:51.944Z,21.25
2022-11-21T08:20:18.010Z,23.85
2022-11-21T08:21:41.380Z,24.60
2022-11-21T08:23:05.047Z,26.05
2022-11-21T08:24:28.460Z,26.60
2022-11-21T08:25:54.003Z,32.65
2022-11-21T08:27:20.883Z,35.33
2022-11-21T08:28:44.260Z,27.40
2022-11-21T08:30:08.842Z,27.38
2022-11-21T08:31:32.192Z,27.58
2022-11-21T08:32:55.602Z,34.75
2022-11-21T08:34:18.970Z,24.65
2022-11-21T08:35:43.744Z,24.77
2022-11-21T08:37:07.131Z,26.70
2022-11-21T08:38:30.490Z,22.13
2022-11-21T08:39:54.055Z,27.15
2022-11-21T08:41:34.957Z,22.50
2022-11-21T08:42:58.806Z,27.80
2022-11-21T08:44:22.165Z,20.58
2022-11-21T08:45:45.539Z,21.27
2022-11-21T08:47:08.954Z,28.33
2022-11-21T08:48:32.373Z,20.17
2022-11-21T08:49:55.731Z,19.45
2022-11-21T08:51:22.104Z,24.77
2022-11-21T08:52:45.449Z,27.20
2022-11-21T08:54:10.219Z,20.55
2022-11-21T08:55:33.770Z,18.48
2022-11-21T08:56:57.169Z,21.63
2022-11-21T08:58:20.538Z,22.02
2022-11-21T08:59:43.905Z,19.83
2022-11-21T09:01:07.765Z,23.77
2022-11-21T09:02:31.137Z,20.35
2022-11-21T09:03:54.520Z,21.45
2022-11-21T09:05:17.929Z,23.40
2022-11-21T09:06:42.671Z,24.08
2022-11-21T09:08:06.242Z,21.92
2022-11-21T09:09:29.595Z,21.38
2022-11-21T09:10:53.169Z,24.88
2022-11-21T09:12:16.617Z,24.35
2022-11-21T09:13:39.979Z,21.52
2022-11-21T09:15:20.879Z,25.58
2022-11-21T09:17:02.383Z,24.48
2022-11-21T09:18:24.905Z,26.33
2022-11-21T09:19:48.277Z,22.88
2022-11-21T09:21:14.902Z,25.83
2022-11-21T09:22:39.662Z,24.25
2022-11-21T09:24:03.250Z,25.52
2022-11-21T09:25:26.675Z,33.10
2022-11-21T09:26:50.022Z,26.50
2022-11-21T09:28:14.769Z,28.73
2022-11-21T09:29:38.095Z,21.48
2022-11-21T09:31:04.236Z,25.17
2022-11-21T09:32:27.669Z,22.52
2022-11-21T09:33:54.984Z,18.48
2022-11-21T09:35:18.640Z,17.45
2022-11-21T09:36:42.012Z,18.15
2022-11-21T09:38:07.183Z,16.83
2022-11-21T09:39:30.845Z,18.50
2022-11-21T09:41:20.900Z,18.05
2022-11-21T09:43:07.875Z,19.55
2022-11-21T09:44:52.114Z,22.30
2022-11-21T09:46:17.560Z,17.25
2022-11-21T09:47:44.497Z,21.25
2022-11-21T09:49:10.403Z,20.27
2022-11-21T09:50:35.798Z,21.80
2022-11-21T09:52:01.452Z,20.42
2022-11-21T09:53:29.142Z,21.55
2022-11-21T09:54:56.345Z,15.88
2022-11-21T09:56:21.377Z,15.23
2022-11-21T09:57:44.956Z,16.80
2022-11-21T09:59:20.631Z,18.48
2022-11-21T10:00:44.206Z,11.60
2022-11-21T10:02:15.198Z,14.20
2022-11-21T10:03:43.604Z,14.80
2022-11-21T10:05:14.132Z,12.20
2022-11-21T10:06:40.662Z,12.98
2022-11-21T10:08:09.138Z,14.02
2022-11-21T10:09:46.131Z,13.88
2022-11-21T10:11:19.907Z,12.90
2022-11-21T10:12:51.881Z,15.18
2022-11-21T10:14:22.868Z,14.45
2022-11-21T10:15:55.240Z,12.43
2022-11-21T10:17:24.241Z,12.38
2022-11-21T10:19:08.730Z,13.20
2022-11-21T10:20:42.244Z,13.27
2022-11-21T10:22:20.882Z,14.35
2022-11-21T10:24:02.036Z,12.55
2022-11-21T10:25:29.388Z,16.05
2022-11-21T10:26:55.865Z,11.82
2022-11-21T10:28:21.859Z,17.33
2022-11-21T10:29:49.733Z,11.38
2022-11-21T10:31:18.188Z,12.15
2022-11-21T10:32:44.448Z,11.85
2022-11-21T10:34:12.460Z,11.55
2022-11-21T10:35:39.616Z,11.25
2022-11-21T10:37:11.686Z,11.68
2022-11-21T10:38:38.228Z,11.93
2022-11-21T10:40:17.185Z,13.88
2022-11-21T10:41:47.305Z,12.55
2022-11-21T10:43:33.957Z,10.40
2022-11-21T10:45:15.576Z,13.43
2022-11-21T10:46:38.985Z,10.35
2022-11-21T10:48:07.853Z,11.32
2022-11-21T10:49:33.777Z,10.93
2022-11-21T10:51:13.525Z,15.95
2022-11-21T10:52:39.517Z,10.93
2022-11-21T10:54:25.677Z,11.15
2022-11-21T10:56:01.150Z,10.75
2022-11-21T10:57:29.862Z,12.20
2022-11-21T10:58:54.526Z,9.48
2022-11-21T11:00:23.632Z,8.38
2022-11-21T11:01:56.484Z,9.05
2022-11-21T11:03:20.849Z,8.68
2022-11-21T11:04:50.903Z,8.82
2022-11-21T11:06:15.751Z,14.35
2022-11-21T11:07:39.250Z,7.38
2022-11-21T11:09:02.713Z,11.15
2022-11-21T11:10:27.996Z,8.18
2022-11-21T11:11:51.754Z,7.88
2022-11-21T11:13:51.702Z,8.00
2022-11-21T11:15:22.651Z,9.13
2022-11-21T11:16:47.589Z,7.93
2022-11-21T11:18:16.501Z,9.60
2022-11-21T11:19:40.611Z,7.45
2022-11-21T11:21:14.740Z,8.32
2022-11-21T11:22:38.142Z,10.02
2022-11-21T11:24:21.367Z,9.45
2022-11-21T11:25:48.135Z,9.15
2022-11-21T11:27:11.565Z,10.68
2022-11-21T11:28:38.177Z,10.30
2022-11-21T11:30:08.135Z,9.73
2022-11-21T11:31:42.585Z,8.57
2022-11-21T11:33:07.024Z,9.07
2022-11-21T11:34:39.205Z,8.18
2022-11-21T11:36:12.791Z,8.75
2022-11-21T11:37:41.084Z,10.15
2022-11-21T11:39:11.626Z,9.45
2022-11-21T11:40:38.442Z,10.27
2022-11-21T11:42:33.535Z,8.70
2022-11-21T11:44:22.439Z,9.40
2022-11-21T11:46:21.983Z,10.35
2022-11-21T11:47:54.840Z,8.48
2022-11-21T11:49:23.717Z,10.02
2022-11-21T11:50:49.452Z,7.78
2022-11-21T11:52:13.889Z,9.05
2022-11-21T11:53:42.065Z,11.70
2022-11-21T11:55:09.308Z,9.80
2022-11-21T11:56:36.965Z,10.50
2022-11-21T11:58:03.662Z,8.82
2022-11-21T11:59:32.406Z,12.70
2022-11-21T12:01:03.097Z,8.90
2022-11-21T12:02:34.248Z,11.13
2022-11-21T12:04:00.731Z,12.15
2022-11-21T12:05:27.244Z,9.38
2022-11-21T12:07:54.049Z,11.15
2022-11-21T12:08:42.555Z,13.10
2022-11-21T12:10:12.472Z,8.50
2022-11-21T12:12:08.678Z,12.43
2022-11-21T12:13:33.268Z,12.80
2022-11-21T12:15:25.093Z,13.35
2022-11-21T12:16:48.464Z,12.15
2022-11-21T12:18:21.666Z,12.13
2022-11-21T12:19:45.474Z,10.00
2022-11-21T12:21:12.417Z,10.63
2022-11-21T12:22:35.782Z,9.32
2022-11-21T12:24:00.021Z,10.80
2022-11-21T12:25:40.490Z,9.93
2022-11-21T12:27:12.523Z,9.00
2022-11-21T12:28:42.644Z,10.68
2022-11-21T12:30:22.833Z,11.52
2022-11-21T12:31:55.729Z,10.27
2022-11-21T12:33:23.107Z,12.05
2022-11-21T12:35:04.565Z,14.52
2022-11-21T12:36:34.351Z,10.60
2022-11-21T12:38:06.425Z,10.82
2022-11-21T12:39:53.372Z,10.07
2022-11-21T12:41:41.835Z,13.02
2022-11-21T12:43:18.676Z,13.07
2022-11-21T12:44:55.604Z,13.70
2022-11-21T12:46:24.484Z,14.85
2022-11-21T12:48:38.520Z,12.75
2022-11-21T12:50:22.721Z,9.77
2022-11-21T12:52:11.737Z,17.38
2022-11-21T12:53:59.191Z,9.82
2022-11-21T12:55:35.331Z,13.80
2022-11-21T12:57:05.182Z,12.70
2022-11-21T12:58:32.538Z,10.80
2022-11-21T13:00:07.208Z,13.30
2022-11-21T13:01:36.793Z,16.33
2022-11-21T13:03:33.848Z,12.63
2022-11-21T13:04:59.377Z,21.30
2022-11-21T13:06:25.369Z,13.77
2022-11-21T13:07:49.834Z,16.05
2022-11-21T13:09:16.391Z,15.35
2022-11-21T13:10:40.508Z,13.15
2022-11-21T13:12:07.907Z,15.13
2022-11-21T13:13:33.373Z,14.70
2022-11-21T13:15:00.165Z,14.85
2022-11-21T13:16:37.557Z,16.45
2022-11-21T13:18:06.750Z,16.33
2022-11-21T13:19:36.223Z,17.73
2022-11-21T13:20:59.882Z,15.68
2022-11-21T13:22:54.935Z,14.20
2022-11-21T13:25:00.955Z,12.55
2022-11-21T13:26:47.420Z,12.85
2022-11-21T13:28:33.311Z,14.93
2022-11-21T13:30:19.316Z,16.67
2022-11-21T13:31:43.435Z,14.30
2022-11-21T13:33:11.295Z,17.08
2022-11-21T13:34:38.337Z,19.00
2022-11-21T13:36:00.939Z,15.05
2022-11-21T13:37:54.723Z,15.63
2022-11-21T13:39:29.488Z,14.73
2022-11-21T13:41:10.348Z,13.90
2022-11-21T13:43:32.160Z,15.65
2022-11-21T13:44:53.272Z,12.88
2022-11-21T13:46:58.761Z,13.18
2022-11-21T13:48:47.019Z,12.60
2022-11-21T13:50:15.570Z,14.07
2022-11-21T13:51:50.320Z,16.52
2022-11-21T13:53:40.698Z,12.30
2022-11-21T13:55:28.989Z,12.02
2022-11-21T13:57:12.005Z,11.43
2022-11-21T13:58:48.409Z,13.27
2022-11-21T14:00:31.359Z,15.35
2022-11-21T14:02:06.226Z,11.02
2022-11-21T14:04:02.192Z,9.20
2022-11-21T14:05:49.050Z,10.95
2022-11-21T14:07:23.919Z,11.52
2022-11-21T14:09:18.592Z,11.45
2022-11-21T14:10:42.836Z,11.77
2022-11-21T14:12:08.526Z,10.73
2022-11-21T14:13:33.642Z,12.20
2022-11-21T14:15:25.232Z,11.98
2022-11-21T14:16:50.745Z,12.23
2022-11-21T14:18:21.214Z,11.15
2022-11-21T14:19:46.034Z,10.90
2022-11-21T14:21:21.203Z,11.57
2022-11-21T14:22:48.980Z,11.38
2022-11-21T14:24:17.329Z,14.55
2022-11-21T14:25:49.071Z,11.60
2022-11-21T14:27:20.009Z,12.98
2022-11-21T14:28:43.359Z,13.27
2022-11-21T14:30:07.355Z,14.98
2022-11-21T14:31:30.759Z,10.88
2022-11-21T14:32:54.711Z,15.43
2022-11-21T14:34:26.725Z,10.63
2022-11-21T14:35:53.984Z,12.10
2022-11-21T14:37:17.379Z,14.45
2022-11-21T14:38:44.015Z,11.27
2022-11-21T14:40:10.683Z,15.05
2022-11-21T14:41:34.481Z,15.57
2022-11-21T14:42:57.906Z,15.25
2022-11-21T14:44:23.082Z,11.07
2022-11-21T14:45:51.118Z,11.93
2022-11-21T14:47:21.498Z,13.15
2022-11-21T14:48:47.140Z,13.25
2022-11-21T14:50:25.383Z,13.75
2022-11-21T14:51:52.762Z,15.13
2022-11-21T14:53:16.254Z,15.48
2022-11-21T14:55:06.493Z,14.57
2022-11-21T14:56:30.014Z,13.75
2022-11-21T14:57:53.866Z,17.98
2022-11-21T14:59:23.407Z,14.98
2022-11-21T15:01:05.579Z,18.02
2022-11-21T15:02:30.659Z,13.95
2022-11-21T15:03:57.382Z,15.02
2022-11-21T15:05:40.488Z,14.07
2022-11-21T15:07:21.231Z,15.82
2022-11-21T15:10:33.361Z,16.30
2022-11-21T15:12:02.524Z,9.50
2022-11-21T15:13:39.749Z,12.20
2022-11-21T15:15:25.908Z,12.82
2022-11-21T15:16:50.750Z,12.77
2022-11-21T15:18:27.458Z,12.20
2022-11-21T15:20:11.207Z,14.35
2022-11-21T15:21:35.862Z,14.38
2022-11-21T15:23:02.464Z,16.38
2022-11-21T15:24:32.512Z,16.30
2022-11-21T15:26:00.595Z,15.23
2022-11-21T15:27:32.754Z,12.95
2022-11-21T15:28:56.705Z,15.60
2022-11-21T15:30:25.488Z,15.77
2022-11-21T15:32:03.834Z,13.02
2022-11-21T15:33:27.301Z,15.18
2022-11-21T15:34:51.065Z,16.02
2022-11-21T15:36:15.445Z,15.63
2022-11-21T15:37:38.851Z,16.95
2022-11-21T15:39:06.980Z,15.25
2022-11-21T15:40:30.361Z,13.55
2022-11-21T15:41:53.693Z,16.17
2022-11-21T15:43:41.128Z,15.30
2022-11-21T15:45:20.764Z,15.80
2022-11-21T15:46:45.001Z,19.02
2022-11-21T15:48:08.849Z,14.25
2022-11-21T15:49:33.465Z,13.32
2022-11-21T15:50:59.116Z,15.48
2022-11-21T15:52:22.668Z,16.08
2022-11-21T15:53:47.021Z,18.77
2022-11-21T15:55:15.170Z,16.80
2022-11-21T15:56:38.579Z,17.95
2022-11-21T15:58:01.932Z,12.77
2022-11-21T15:59:25.298Z,14.52
2022-11-21T16:00:47.789Z,13.93
2022-11-21T16:02:14.395Z,13.75
2022-11-21T16:03:37.744Z,16.40
2022-11-21T16:05:02.492Z,15.27
2022-11-21T16:06:26.009Z,16.58
2022-11-21T16:07:49.436Z,16.70
2022-11-21T16:09:13.007Z,15.98
2022-11-21T16:10:37.835Z,12.55
2022-11-21T16:12:01.227Z,15.25
2022-11-21T16:13:24.656Z,18.20
2022-11-21T16:14:48.058Z,13.95
2022-11-21T16:16:13.089Z,14.35
2022-11-21T16:17:36.458Z,13.20
2022-11-21T16:19:00.415Z,16.90
2022-11-21T16:20:23.779Z,17.63
2022-11-21T16:21:47.149Z,12.10
2022-11-21T16:23:11.618Z,16.88
2022-11-21T16:24:34.988Z,13.38
2022-11-21T16:25:59.684Z,13.68
2022-11-21T16:27:23.033Z,15.68
2022-11-21T16:28:47.049Z,17.77
2022-11-21T16:30:11.734Z,13.63
2022-11-21T16:31:35.139Z,14.30
2022-11-21T16:32:58.506Z,14.13
2022-11-21T16:34:22.539Z,16.77
2022-11-21T16:35:46.910Z,13.55
2022-11-21T16:37:10.385Z,13.73
2022-11-21T16:38:32.796Z,16.23
2022-11-21T16:39:56.210Z,13.57
2022-11-21T16:41:22.747Z,14.50
2022-11-21T16:42:47.024Z,15.90
2022-11-21T16:44:14.749Z,15.93
2022-11-21T16:45:38.305Z,16.77
2022-11-21T16:47:06.780Z,18.42
2022-11-21T16:48:31.787Z,15.95
2022-11-21T16:49:55.197Z,15.15
2022-11-21T16:51:20.206Z,12.73
2022-11-21T16:52:43.576Z,13.20
2022-11-21T16:54:09.252Z,12.43
2022-11-21T16:55:32.990Z,12.05
2022-11-21T16:56:57.756Z,17.02
2022-11-21T16:58:21.399Z,16.77
2022-11-21T16:59:43.774Z,18.23
2022-11-21T17:01:12.427Z,21.55
2022-11-21T17:02:37.814Z,17.10
2022-11-21T17:04:01.178Z,16.07
2022-11-21T17:05:25.016Z,16.33
2022-11-21T17:06:48.945Z,19.50
2022-11-21T17:08:12.319Z,14.73
2022-11-21T17:09:35.791Z,15.18
2022-11-21T17:10:59.178Z,16.87
2022-11-21T17:12:24.344Z,14.80
2022-11-21T17:13:49.015Z,15.52
2022-11-21T17:15:13.864Z,18.45
2022-11-21T17:16:38.049Z,19.67
2022-11-21T17:18:01.441Z,18.13
2022-11-21T17:19:27.172Z,17.80
2022-11-21T17:20:50.650Z,17.93
2022-11-21T17:22:14.019Z,15.57
2022-11-21T17:23:38.325Z,18.87
2022-11-21T17:25:01.697Z,17.27
2022-11-21T17:26:26.810Z,15.70
2022-11-21T17:27:51.509Z,19.33
2022-11-21T17:29:13.862Z,19.30
2022-11-21T17:30:42.955Z,19.52
2022-11-21T17:32:06.806Z,19.33
2022-11-21T17:33:30.185Z,16.65
2022-11-21T17:34:53.533Z,17.00
2022-11-21T17:36:16.953Z,23.10
2022-11-21T17:37:40.388Z,18.50
2022-11-21T17:39:04.139Z,19.33
2022-11-21T17:40:27.485Z,14.37
2022-11-21T17:41:50.876Z,13.77
2022-11-21T17:43:15.673Z,16.63
2022-11-21T17:44:39.029Z,18.75
2022-11-21T17:46:09.050Z,19.98
2022-11-21T17:47:34.661Z,18.83
2022-11-21T17:48:59.407Z,16.20
2022-11-21T17:50:22.788Z,19.10
2022-11-21T17:51:46.546Z,19.60
2022-11-21T17:53:09.883Z,20.63
2022-11-21T17:54:33.325Z,14.53
2022-11-21T17:55:59.682Z,21.13
2022-11-21T17:57:23.024Z,20.90
2022-11-21T17:58:48.149Z,22.87
2022-11-21T18:00:13.004Z,22.30
2022-11-21T18:01:36.575Z,19.57
2022-11-21T18:02:59.997Z,24.47
2022-11-21T18:04:23.425Z,21.65
2022-11-21T18:05:51.526Z,21.40
2022-11-21T18:07:15.415Z,18.58
2022-11-21T18:08:39.425Z,17.90
2022-11-21T18:10:27.517Z,20.90
2022-11-21T18:11:46.512Z,21.70
2022-11-21T18:13:10.412Z,22.60
2022-11-21T18:14:35.123Z,21.88
2022-11-21T18:16:02.162Z,21.95
2022-11-21T18:17:25.593Z,21.83
2022-11-21T18:18:49.824Z,20.65
2022-11-21T18:20:13.369Z,18.27
2022-11-21T18:21:37.295Z,16.23
2022-11-21T18:23:01.313Z,23.67
2022-11-21T18:24:24.738Z,20.33
2022-11-21T18:25:48.084Z,24.55
2022-11-21T18:27:11.815Z,18.67
2022-11-21T18:28:35.591Z,22.23
2022-11-21T18:30:00.337Z,21.47
2022-11-21T18:31:25.254Z,26.35
2022-11-21T18:32:50.468Z,17.20
2022-11-21T18:34:13.859Z,21.10
2022-11-21T18:35:37.664Z,21.30
2022-11-21T18:37:01.010Z,26.85
2022-11-21T18:38:47.349Z,19.25
2022-11-21T18:40:08.971Z,19.02
2022-11-21T18:41:34.044Z,16.67
2022-11-21T18:42:57.399Z,18.70